sim
Sign-in with your pilot id or email,
or register
Callsign
Passwort

Schedule Details

Flight Number: OEO8981
Departure: Oslo Gardermoen Airport (ENGM) at 16:00
Arrival: Bremen Airport (EDDW) at 17:45

Weather Information
Getting current METAR information for ENGM 101750Z 06009KT 020V100 9999 VCSH FEW045CB BKN160 15/08 Q1007 TEMPO SHRA
Getting current METAR information for EDDW 101750Z 29006KT 9999 FEW022 15/10 Q1016 NOSIG

Schedule Frequency

Route Map